Terminal Aerodrome Forecast
Issued by NWS

Home | Current Version | Previous Version | Text Only | Print | Product List | Glossary On
Versions: 1 2 3 4 5 6 7 8 9 10 11 12 13
263
FTPA31 PHFO 230327 AAA
TAFHJR
TAF AMD
PHJR 230327Z 2303/2324 06008KT P6SM FEW025 SCT035 SCT250
     FM232100 11009KT P6SM SCT040=

USA.gov is the U.S. government's official web portal to all federal, state and local government web resources and services.